Etusivu
METAR-TAF:

METAR-TAF

Lentoasemat :

Kozánin lentoasema

Kozani, Kreikka

Leveyspiiri: 40-18N, Pituuspiiri: 021-47E, korkeus merenpinnasta: 634 m

Tämänhetkinen sää

Tämä raportti tehtiin 21 minuuttia sitten, kello 16.50 UTC
Tuuli 1 kn eri suunnista
Lämpötila 19°C
Kosteus 40%
Ilmanpaine 1017 hPa

METAR: LGKZ 261650Z AUTO VRB01KT //// // ////// 19/05 Q1017 RE//

Aika: 20:11 (17:11 UTC)


TAF: puuttuu

Säähavainnot ja -ennusteet yli 4000 lentoasemalta (METAR- ja TAF-raportit).

Käytössä olevat sääasemat on merkitty karttaan keltaisilla ja punaisilla pisteillä.

Aseta hiiri pisteen päälle nähdäksesi sääaseman nimen.

Klikkaa sitten nähdäksesi säähavainnot ja -ennusteet.

Kartan vaihtaminen: klikkaa mustalla rastilla varustettuja vihreitä pisteitä, niin voit zoomata sisään; viivalla varustettua vihreää pistettä, niin voit zoomata ulos tai vihreitä nuolia, niin pääset viereisille kartoille.


METAR-TAF: